METAR Data
IDs: Format: Raw Decoded Include TAF

Data at: 0742 UTC 03 Aug 2021

EDMO 030720Z 25003KT 210V320 CAVOK 18/12 Q1016